sensor_id;sensor_type;location;lat;lon;timestamp;pressure;altitude;pressure_sealevel;temperature;humidity
48027;BME280;50714;49.208;5.364;2024-03-02T00:02:45;97951.66;;;8.92;76.07
48027;BME280;50714;49.208;5.364;2024-03-02T00:12:47;97984.63;;;8.87;83.80
48027;BME280;50714;49.208;5.364;2024-03-02T00:22:48;97989.78;;;8.59;87.47
48027;BME280;50714;49.208;5.364;2024-03-02T00:32:49;97995.03;;;8.36;91.17
48027;BME280;50714;49.208;5.364;2024-03-02T00:42:52;98007.69;;;8.29;93.48
48027;BME280;50714;49.208;5.364;2024-03-02T00:52:53;98000.56;;;8.23;94.88
48027;BME280;50714;49.208;5.364;2024-03-02T01:02:53;98010.94;;;8.19;96.45
48027;BME280;50714;49.208;5.364;2024-03-02T01:12:53;98006.06;;;8.09;97.22
48027;BME280;50714;49.208;5.364;2024-03-02T01:22:54;98003.81;;;8.06;99.27
48027;BME280;50714;49.208;5.364;2024-03-02T01:32:54;98019.00;;;8.01;100.00
48027;BME280;50714;49.208;5.364;2024-03-02T01:42:54;98026.06;;;7.95;100.00
48027;BME280;50714;49.208;5.364;2024-03-02T01:52:56;98020.69;;;7.95;100.00
48027;BME280;50714;49.208;5.364;2024-03-02T02:02:56;98010.16;;;7.75;100.00
48027;BME280;50714;49.208;5.364;2024-03-02T02:12:57;98006.38;;;7.58;100.00
48027;BME280;50714;49.208;5.364;2024-03-02T02:32:59;97990.34;;;7.51;100.00
48027;BME280;50714;49.208;5.364;2024-03-02T02:42:59;97971.38;;;7.46;100.00
48027;BME280;50714;49.208;5.364;2024-03-02T02:53:00;97971.38;;;7.46;100.00
48027;BME280;50714;49.208;5.364;2024-03-02T03:03:00;97954.94;;;7.36;100.00
48027;BME280;50714;49.208;5.364;2024-03-02T03:13:00;97940.88;;;7.41;100.00
48027;BME280;50714;49.208;5.364;2024-03-02T03:23:02;97957.41;;;7.38;100.00
48027;BME280;50714;49.208;5.364;2024-03-02T03:33:04;97945.88;;;7.37;100.00
48027;BME280;50714;49.208;5.364;2024-03-02T03:43:08;97951.84;;;7.39;100.00
48027;BME280;50714;49.208;5.364;2024-03-02T03:53:09;97951.63;;;7.41;100.00
48027;BME280;50714;49.208;5.364;2024-03-02T04:03:09;97937.00;;;7.37;100.00
48027;BME280;50714;49.208;5.364;2024-03-02T04:13:10;97934.91;;;7.39;100.00
48027;BME280;50714;49.208;5.364;2024-03-02T04:23:10;97939.28;;;7.33;100.00
48027;BME280;50714;49.208;5.364;2024-03-02T04:33:10;97939.00;;;7.41;100.00
48027;BME280;50714;49.208;5.364;2024-03-02T04:43:11;97940.06;;;7.40;100.00
48027;BME280;50714;49.208;5.364;2024-03-02T04:53:15;97953.84;;;7.44;100.00
48027;BME280;50714;49.208;5.364;2024-03-02T05:03:15;97951.00;;;7.39;100.00
48027;BME280;50714;49.208;5.364;2024-03-02T05:13:15;97952.06;;;7.38;100.00
48027;BME280;50714;49.208;5.364;2024-03-02T05:23:17;97947.00;;;7.30;100.00
48027;BME280;50714;49.208;5.364;2024-03-02T05:33:18;97948.91;;;7.23;100.00
48027;BME280;50714;49.208;5.364;2024-03-02T05:43:18;97960.44;;;7.23;100.00
48027;BME280;50714;49.208;5.364;2024-03-02T05:53:20;97961.94;;;7.19;100.00
48027;BME280;50714;49.208;5.364;2024-03-02T06:03:20;97952.41;;;7.23;100.00
48027;BME280;50714;49.208;5.364;2024-03-02T06:13:20;97970.41;;;7.16;100.00
48027;BME280;50714;49.208;5.364;2024-03-02T06:23:20;97971.84;;;7.18;100.00
48027;BME280;50714;49.208;5.364;2024-03-02T06:33:21;97984.81;;;7.22;100.00
48027;BME280;50714;49.208;5.364;2024-03-02T06:43:21;97996.53;;;7.27;100.00
48027;BME280;50714;49.208;5.364;2024-03-02T06:53:25;97980.38;;;7.34;100.00
48027;BME280;50714;49.208;5.364;2024-03-02T07:03:25;97962.41;;;7.34;100.00
48027;BME280;50714;49.208;5.364;2024-03-02T07:13:26;97963.88;;;7.55;100.00
48027;BME280;50714;49.208;5.364;2024-03-02T07:23:27;97952.78;;;7.88;100.00
48027;BME280;50714;49.208;5.364;2024-03-02T07:33:27;97947.91;;;8.15;100.00
48027;BME280;50714;49.208;5.364;2024-03-02T07:43:28;97960.69;;;8.38;100.00
48027;BME280;50714;49.208;5.364;2024-03-02T07:53:28;97976.75;;;8.44;100.00
48027;BME280;50714;49.208;5.364;2024-03-02T08:03:28;97974.84;;;8.75;100.00
48027;BME280;50714;49.208;5.364;2024-03-02T08:13:29;97978.38;;;8.75;99.98
48027;BME280;50714;49.208;5.364;2024-03-02T08:23:29;97988.34;;;8.57;100.00
48027;BME280;50714;49.208;5.364;2024-03-02T08:33:30;97993.28;;;8.60;100.00
48027;BME280;50714;49.208;5.364;2024-03-02T08:43:31;97990.72;;;8.65;100.00
48027;BME280;50714;49.208;5.364;2024-03-02T08:53:31;97981.94;;;8.87;100.00
48027;BME280;50714;49.208;5.364;2024-03-02T09:03:31;97988.72;;;8.90;100.00
48027;BME280;50714;49.208;5.364;2024-03-02T09:13:33;97974.00;;;9.04;100.00
48027;BME280;50714;49.208;5.364;2024-03-02T09:23:34;97956.63;;;9.30;100.00
48027;BME280;50714;49.208;5.364;2024-03-02T09:33:34;97961.91;;;9.83;98.75
48027;BME280;50714;49.208;5.364;2024-03-02T09:43:34;97958.06;;;9.68;99.13
48027;BME280;50714;49.208;5.364;2024-03-02T09:53:35;97933.53;;;9.81;99.06
48027;BME280;50714;49.208;5.364;2024-03-02T10:03:39;97916.81;;;10.31;99.29
48027;BME280;50714;49.208;5.364;2024-03-02T10:13:39;97920.53;;;11.37;94.97
48027;BME280;50714;49.208;5.364;2024-03-02T10:23:40;97916.94;;;13.06;84.03
48027;BME280;50714;49.208;5.364;2024-03-02T10:33:40;97907.28;;;14.61;74.01
48027;BME280;50714;49.208;5.364;2024-03-02T10:43:41;97897.84;;;15.10;70.71
48027;BME280;50714;49.208;5.364;2024-03-02T10:53:41;97896.72;;;14.75;69.35
48027;BME280;50714;49.208;5.364;2024-03-02T11:03:42;97888.09;;;14.11;69.26
48027;BME280;50714;49.208;5.364;2024-03-02T11:13:49;97889.16;;;13.57;68.05
48027;BME280;50714;49.208;5.364;2024-03-02T11:23:50;97878.19;;;13.37;71.18
48027;BME280;50714;49.208;5.364;2024-03-02T11:33:50;97857.19;;;13.59;69.42
48027;BME280;50714;49.208;5.364;2024-03-02T11:43:50;97847.09;;;13.50;67.90
48027;BME280;50714;49.208;5.364;2024-03-02T11:53:51;97845.44;;;13.39;65.98
48027;BME280;50714;49.208;5.364;2024-03-02T12:03:54;97814.19;;;13.26;65.42
48027;BME280;50714;49.208;5.364;2024-03-02T12:13:55;97799.97;;;13.51;66.72
48027;BME280;50714;49.208;5.364;2024-03-02T12:23:57;97779.88;;;13.42;63.82
48027;BME280;50714;49.208;5.364;2024-03-02T12:33:58;97773.47;;;13.63;64.57
48027;BME280;50714;49.208;5.364;2024-03-02T12:43:58;97759.41;;;13.76;64.02
48027;BME280;50714;49.208;5.364;2024-03-02T12:54:00;97761.50;;;13.59;63.00
48027;BME280;50714;49.208;5.364;2024-03-02T13:04:01;97742.56;;;13.64;64.08
48027;BME280;50714;49.208;5.364;2024-03-02T13:14:01;97746.91;;;13.70;62.23
48027;BME280;50714;49.208;5.364;2024-03-02T13:24:01;97744.56;;;13.26;62.59
48027;BME280;50714;49.208;5.364;2024-03-02T13:34:03;97745.50;;;13.05;63.45
48027;BME280;50714;49.208;5.364;2024-03-02T13:44:03;97734.53;;;12.85;63.51
48027;BME280;50714;49.208;5.364;2024-03-02T13:54:04;97725.00;;;12.72;64.90
48027;BME280;50714;49.208;5.364;2024-03-02T14:04:04;97721.13;;;12.63;65.70
48027;BME280;50714;49.208;5.364;2024-03-02T14:14:05;97707.41;;;12.75;66.45
48027;BME280;50714;49.208;5.364;2024-03-02T14:24:06;97706.38;;;12.86;64.64
48027;BME280;50714;49.208;5.364;2024-03-02T14:34:09;97688.25;;;12.86;66.65
48027;BME280;50714;49.208;5.364;2024-03-02T14:44:09;97681.97;;;12.76;67.38
48027;BME280;50714;49.208;5.364;2024-03-02T14:54:10;97665.28;;;12.52;69.33
48027;BME280;50714;49.208;5.364;2024-03-02T15:04:10;97658.72;;;12.38;71.17
48027;BME280;50714;49.208;5.364;2024-03-02T15:14:11;97646.63;;;12.13;75.88
48027;BME280;50714;49.208;5.364;2024-03-02T15:24:11;97639.97;;;11.94;78.16
48027;BME280;50714;49.208;5.364;2024-03-02T15:34:12;97622.34;;;11.86;79.04
48027;BME280;50714;49.208;5.364;2024-03-02T15:44:12;97619.31;;;11.83;79.59
48027;BME280;50714;49.208;5.364;2024-03-02T15:54:12;97597.44;;;11.79;81.13
48027;BME280;50714;49.208;5.364;2024-03-02T16:04:13;97593.66;;;11.80;81.33
48027;BME280;50714;49.208;5.364;2024-03-02T16:14:14;97586.50;;;11.69;83.58
48027;BME280;50714;49.208;5.364;2024-03-02T16:24:14;97580.97;;;11.59;87.70
48027;BME280;50714;49.208;5.364;2024-03-02T16:34:14;97589.34;;;11.57;86.34
48027;BME280;50714;49.208;5.364;2024-03-02T16:44:15;97583.41;;;11.55;85.35
48027;BME280;50714;49.208;5.364;2024-03-02T16:54:15;97578.53;;;11.57;83.40
48027;BME280;50714;49.208;5.364;2024-03-02T17:04:15;97587.00;;;11.66;81.77
48027;BME280;50714;49.208;5.364;2024-03-02T17:14:16;97608.38;;;11.68;81.11
48027;BME280;50714;49.208;5.364;2024-03-02T17:24:16;97621.09;;;11.72;79.72
48027;BME280;50714;49.208;5.364;2024-03-02T17:34:16;97630.38;;;11.76;79.35
48027;BME280;50714;49.208;5.364;2024-03-02T17:44:17;97640.13;;;11.77;77.75
48027;BME280;50714;49.208;5.364;2024-03-02T17:54:17;97643.38;;;11.79;76.53
48027;BME280;50714;49.208;5.364;2024-03-02T18:04:17;97641.75;;;11.78;76.22
48027;BME280;50714;49.208;5.364;2024-03-02T18:14:18;97653.53;;;11.72;76.22
48027;BME280;50714;49.208;5.364;2024-03-02T18:24:18;97654.00;;;11.64;77.52
48027;BME280;50714;49.208;5.364;2024-03-02T18:34:23;97637.31;;;11.45;80.32
48027;BME280;50714;49.208;5.364;2024-03-02T18:44:23;97657.06;;;11.24;83.60
48027;BME280;50714;49.208;5.364;2024-03-02T18:54:24;97651.50;;;11.09;86.71
48027;BME280;50714;49.208;5.364;2024-03-02T19:04:24;97641.88;;;10.96;89.68
48027;BME280;50714;49.208;5.364;2024-03-02T19:14:25;97634.75;;;10.85;90.36
48027;BME280;50714;49.208;5.364;2024-03-02T19:24:25;97621.75;;;10.82;92.42
48027;BME280;50714;49.208;5.364;2024-03-02T19:34:27;97604.84;;;10.70;97.40
48027;BME280;50714;49.208;5.364;2024-03-02T19:44:27;97629.88;;;10.65;97.33
48027;BME280;50714;49.208;5.364;2024-03-02T19:54:32;97606.78;;;10.74;97.17
48027;BME280;50714;49.208;5.364;2024-03-02T20:04:33;97608.13;;;10.72;98.17
48027;BME280;50714;49.208;5.364;2024-03-02T20:14:33;97611.56;;;10.67;99.43
48027;BME280;50714;49.208;5.364;2024-03-02T20:24:34;97607.19;;;10.61;100.00
48027;BME280;50714;49.208;5.364;2024-03-02T20:34:34;97597.50;;;10.65;99.22
48027;BME280;50714;49.208;5.364;2024-03-02T20:44:34;97616.94;;;10.67;98.62
48027;BME280;50714;49.208;5.364;2024-03-02T20:54:35;97621.03;;;10.70;98.68
48027;BME280;50714;49.208;5.364;2024-03-02T21:04:36;97613.75;;;10.70;97.78
48027;BME280;50714;49.208;5.364;2024-03-02T21:14:37;97620.84;;;10.76;96.54
48027;BME280;50714;49.208;5.364;2024-03-02T21:24:39;97617.72;;;10.84;95.40
48027;BME280;50714;49.208;5.364;2024-03-02T21:34:42;97614.25;;;10.89;93.81
48027;BME280;50714;49.208;5.364;2024-03-02T21:44:43;97618.66;;;10.95;93.49
48027;BME280;50714;49.208;5.364;2024-03-02T21:54:43;97620.22;;;10.91;94.46
48027;BME280;50714;49.208;5.364;2024-03-02T22:04:43;97592.91;;;10.87;93.89
48027;BME280;50714;49.208;5.364;2024-03-02T22:14:44;97585.63;;;10.88;95.03
48027;BME280;50714;49.208;5.364;2024-03-02T22:24:44;97581.84;;;10.84;95.34
48027;BME280;50714;49.208;5.364;2024-03-02T22:34:44;97572.34;;;10.81;96.14
48027;BME280;50714;49.208;5.364;2024-03-02T22:44:45;97567.41;;;10.73;95.50
48027;BME280;50714;49.208;5.364;2024-03-02T22:54:46;97576.47;;;10.67;95.52
48027;BME280;50714;49.208;5.364;2024-03-02T23:04:46;97571.72;;;10.74;94.01
48027;BME280;50714;49.208;5.364;2024-03-02T23:14:47;97577.53;;;10.88;89.85
48027;BME280;50714;49.208;5.364;2024-03-02T23:24:47;97572.53;;;10.97;88.78
48027;BME280;50714;49.208;5.364;2024-03-02T23:34:47;97575.53;;;11.00;88.01
48027;BME280;50714;49.208;5.364;2024-03-02T23:44:48;97578.56;;;11.04;89.14
48027;BME280;50714;49.208;5.364;2024-03-02T23:54:48;97578.00;;;11.02;87.67
